Time,TemperatureF,DewpointF,PressureIn,WindDirection,WindDirectionDegrees,WindSpeedMPH,WindSpeedGustMPH,Humidity,HourlyPrecipIn,Conditions,Clouds,dailyrainin,SoftwareType,DateUTC
2013-07-19 00:01:00,85.0,82.1,29.98,South,185,5.0,12.0,91,0.00,,CLR,0.00,VWS V14.01,2013-07-19 04:01:00,
2013-07-19 00:06:00,84.9,81.6,29.98,SSW,200,3.0,7.0,90,0.00,,CLR,0.00,VWS V14.01,2013-07-19 04:06:00,
2013-07-19 00:12:00,84.8,81.5,29.98,SSE,157,1.0,11.0,90,0.00,,CLR,0.00,VWS V14.01,2013-07-19 04:12:00,
2013-07-19 00:17:00,84.8,81.5,29.98,SSE,168,5.0,12.0,90,0.00,,CLR,0.00,VWS V14.01,2013-07-19 04:17:00,
2013-07-19 00:22:00,84.8,81.2,29.98,South,179,7.0,11.0,89,0.00,,CLR,0.00,VWS V14.01,2013-07-19 04:22:00,
2013-07-19 00:27:00,84.8,81.2,29.98,SSE,157,5.0,9.0,89,0.00,,CLR,0.00,VWS V14.01,2013-07-19 04:27:00,
2013-07-19 00:32:00,84.7,80.8,29.98,SSW,193,4.0,7.0,88,0.00,,CLR,0.00,VWS V14.01,2013-07-19 04:32:00,
2013-07-19 00:37:00,84.7,80.8,29.98,South,179,3.0,7.0,88,0.00,,CLR,0.00,VWS V14.01,2013-07-19 04:37:00,
2013-07-19 00:42:00,84.6,80.7,29.98,SE,132,4.0,9.0,88,0.00,,CLR,0.00,VWS V14.01,2013-07-19 04:42:00,
2013-07-19 00:47:00,84.5,80.6,29.98,SSE,162,3.0,9.0,88,0.00,,CLR,0.00,VWS V14.01,2013-07-19 04:47:00,
2013-07-19 00:52:00,84.5,80.6,29.98,SSE,167,5.0,10.0,88,0.00,,CLR,0.00,VWS V14.01,2013-07-19 04:52:00,
2013-07-19 00:57:00,84.4,80.5,29.98,SSW,200,4.0,6.0,88,0.00,,CLR,0.00,VWS V14.01,2013-07-19 04:57:00,
2013-07-19 01:02:00,84.3,80.4,29.98,SSE,166,9.0,13.0,88,0.00,,CLR,0.00,VWS V14.01,2013-07-19 05:02:00,
2013-07-19 01:07:00,84.2,79.9,29.98,South,186,2.0,10.0,87,0.00,,CLR,0.00,VWS V14.01,2013-07-19 05:07:00,
2013-07-19 01:12:00,84.2,79.9,29.98,South,178,7.0,10.0,87,0.00,,CLR,0.00,VWS V14.01,2013-07-19 05:12:00,
2013-07-19 01:17:00,84.2,79.9,29.98,SSW,205,3.0,10.0,87,0.00,,CLR,0.00,VWS V14.01,2013-07-19 05:17:00,
2013-07-19 01:22:00,84.2,79.9,29.98,South,187,10.0,10.0,87,0.00,,CLR,0.00,VWS V14.01,2013-07-19 05:22:00,
2013-07-19 01:27:00,84.2,79.9,29.98,South,173,5.0,10.0,87,0.00,,CLR,0.00,VWS V14.01,2013-07-19 05:27:00,
2013-07-19 01:32:00,84.1,79.8,29.98,SSE,165,5.0,11.0,87,0.00,,CLR,0.00,VWS V14.01,2013-07-19 05:32:00,
2013-07-19 01:37:00,84.1,79.8,29.98,South,188,4.0,10.0,87,0.00,,CLR,0.00,VWS V14.01,2013-07-19 05:37:00,
2013-07-19 01:42:00,84.0,79.7,29.98,SSW,194,0.0,5.0,87,0.00,,CLR,0.00,VWS V14.01,2013-07-19 05:42:00,
2013-07-19 01:47:00,83.9,79.6,29.98,South,189,3.0,11.0,87,0.00,,CLR,0.00,VWS V14.01,2013-07-19 05:47:00,
2013-07-19 01:52:00,83.8,79.5,29.98,SSE,166,6.0,8.0,87,0.00,,CLR,0.00,VWS V14.01,2013-07-19 05:52:00,
2013-07-19 01:57:00,83.8,79.9,29.98,SSE,165,3.0,7.0,88,0.00,,CLR,0.00,VWS V14.01,2013-07-19 05:57:00,
2013-07-19 02:02:00,83.8,79.9,29.98,SW,225,8.0,8.0,88,0.00,,CLR,0.00,VWS V14.01,2013-07-19 06:02:00,
2013-07-19 02:07:00,83.7,79.8,29.98,SW,231,3.0,7.0,88,0.00,,CLR,0.00,VWS V14.01,2013-07-19 06:07:00,
2013-07-19 02:12:00,83.7,79.8,29.98,SW,221,5.0,6.0,88,0.00,,CLR,0.00,VWS V14.01,2013-07-19 06:12:00,
2013-07-19 02:17:00,83.6,79.7,29.98,SW,223,10.0,10.0,88,0.00,,CLR,0.00,VWS V14.01,2013-07-19 06:17:00,
2013-07-19 02:22:00,83.6,79.7,29.98,SSW,207,3.0,6.0,88,0.00,,CLR,0.00,VWS V14.01,2013-07-19 06:22:00,
2013-07-19 02:27:00,83.5,79.6,29.98,SSW,202,6.0,11.0,88,0.00,,CLR,0.00,VWS V14.01,2013-07-19 06:27:00,
2013-07-19 02:32:00,83.4,79.5,29.98,SSW,211,2.0,7.0,88,0.00,,CLR,0.00,VWS V14.01,2013-07-19 06:32:00,
2013-07-19 02:37:00,83.3,79.4,29.98,SSW,207,10.0,10.0,88,0.00,,CLR,0.00,VWS V14.01,2013-07-19 06:37:00,
2013-07-19 02:42:00,83.4,79.5,29.98,SW,228,7.0,9.0,88,0.00,,CLR,0.00,VWS V14.01,2013-07-19 06:42:00,
2013-07-19 02:47:00,83.2,79.3,29.98,SSE,157,3.0,6.0,88,0.00,,CLR,0.00,VWS V14.01,2013-07-19 06:47:00,
2013-07-19 02:52:00,83.2,79.3,29.98,South,175,3.0,10.0,88,0.00,,CLR,0.00,VWS V14.01,2013-07-19 06:52:00,
2013-07-19 02:57:00,83.2,79.3,29.98,SW,231,5.0,10.0,88,0.00,,CLR,0.00,VWS V14.01,2013-07-19 06:57:00,
2013-07-19 03:03:00,83.2,79.3,29.98,SW,233,3.0,4.0,88,0.00,,CLR,0.00,VWS V14.01,2013-07-19 07:03:00,
2013-07-19 03:08:00,83.1,79.2,29.98,SSW,211,4.0,8.0,88,0.00,,CLR,0.00,VWS V14.01,2013-07-19 07:08:00,
2013-07-19 03:13:00,83.1,78.8,29.98,SW,215,2.0,6.0,87,0.00,,CLR,0.00,VWS V14.01,2013-07-19 07:13:00,
2013-07-19 03:18:00,83.1,78.8,29.97,SW,220,3.0,8.0,87,0.00,,CLR,0.00,VWS V14.01,2013-07-19 07:18:00,
2013-07-19 03:23:00,83.1,78.8,29.97,SW,214,6.0,6.0,87,0.00,,CLR,0.00,VWS V14.01,2013-07-19 07:23:00,
2013-07-19 03:28:00,83.1,78.8,29.97,SSW,200,6.0,7.0,87,0.00,,CLR,0.00,VWS V14.01,2013-07-19 07:28:00,
2013-07-19 03:33:00,83.2,78.9,29.97,SW,221,4.0,6.0,87,0.00,,CLR,0.00,VWS V14.01,2013-07-19 07:33:00,
2013-07-19 03:38:00,83.1,78.8,29.97,SSW,200,0.0,9.0,87,0.00,,CLR,0.00,VWS V14.01,2013-07-19 07:38:00,
2013-07-19 03:43:00,83.1,78.8,29.97,SSW,205,2.0,6.0,87,0.00,,CLR,0.00,VWS V14.01,2013-07-19 07:43:00,
2013-07-19 03:48:00,83.0,78.7,29.97,SW,230,0.0,5.0,87,0.00,,CLR,0.00,VWS V14.01,2013-07-19 07:48:00,
2013-07-19 03:53:00,82.9,78.3,29.97,SW,216,4.0,6.0,86,0.00,,CLR,0.00,VWS V14.01,2013-07-19 07:53:00,
2013-07-19 03:58:00,82.9,78.6,29.97,SSW,212,6.0,10.0,87,0.00,,CLR,0.00,VWS V14.01,2013-07-19 07:58:00,
2013-07-19 04:03:00,82.9,78.6,29.97,SSW,197,3.0,6.0,87,0.00,,CLR,0.00,VWS V14.01,2013-07-19 08:03:00,
2013-07-19 04:08:00,82.9,78.6,29.97,SW,221,0.0,4.0,87,0.00,,CLR,0.00,VWS V14.01,2013-07-19 08:08:00,
2013-07-19 04:13:00,82.8,78.5,29.97,SW,217,3.0,5.0,87,0.00,,CLR,0.00,VWS V14.01,2013-07-19 08:13:00,
2013-07-19 04:18:00,82.7,78.4,29.97,SW,215,3.0,6.0,87,0.00,,CLR,0.00,VWS V14.01,2013-07-19 08:18:00,
2013-07-19 04:23:00,82.7,78.4,29.97,SW,217,3.0,4.0,87,0.00,,CLR,0.00,VWS V14.01,2013-07-19 08:23:00,
2013-07-19 04:28:00,82.6,78.3,29.97,SW,218,2.0,7.0,87,0.00,,CLR,0.00,VWS V14.01,2013-07-19 08:28:00,
2013-07-19 04:33:00,82.6,78.3,29.97,SW,219,2.0,10.0,87,0.00,,CLR,0.00,VWS V14.01,2013-07-19 08:33:00,
2013-07-19 04:38:00,82.5,78.2,29.97,SSW,197,4.0,9.0,87,0.00,,CLR,0.00,VWS V14.01,2013-07-19 08:38:00,
2013-07-19 04:43:00,82.4,78.1,29.97,South,169,1.0,5.0,87,0.00,,CLR,0.00,VWS V14.01,2013-07-19 08:43:00,
2013-07-19 04:48:00,82.4,78.1,29.97,SW,226,4.0,5.0,87,0.00,,CLR,0.00,VWS V14.01,2013-07-19 08:48:00,
2013-07-19 04:53:00,82.4,78.1,29.97,SW,235,5.0,6.0,87,0.00,,CLR,0.00,VWS V14.01,2013-07-19 08:53:00,
2013-07-19 04:58:00,82.3,78.1,29.97,SW,236,6.0,7.0,87,0.00,,CLR,0.00,VWS V14.01,2013-07-19 08:58:00,
2013-07-19 05:03:00,82.3,77.7,29.97,SW,217,5.0,10.0,86,0.00,,CLR,0.00,VWS V14.01,2013-07-19 09:03:00,
2013-07-19 05:08:00,82.3,78.1,29.97,SW,228,5.0,6.0,87,0.00,,CLR,0.00,VWS V14.01,2013-07-19 09:08:00,
2013-07-19 05:13:00,82.4,78.1,29.97,SW,219,4.0,4.0,87,0.00,,CLR,0.00,VWS V14.01,2013-07-19 09:13:00,
2013-07-19 05:18:00,82.3,78.1,29.97,SSW,211,7.0,8.0,87,0.00,,CLR,0.00,VWS V14.01,2013-07-19 09:18:00,
2013-07-19 05:23:00,82.3,77.7,29.97,WSW,237,5.0,6.0,86,0.00,,CLR,0.00,VWS V14.01,2013-07-19 09:23:00,
2013-07-19 05:28:00,82.3,77.7,29.97,SW,227,2.0,5.0,86,0.00,,CLR,0.00,VWS V14.01,2013-07-19 09:28:00,
2013-07-19 05:33:00,82.2,77.9,29.97,WSW,243,5.0,6.0,87,0.00,,CLR,0.00,VWS V14.01,2013-07-19 09:33:00,
2013-07-19 05:38:00,82.2,77.9,29.98,SW,225,0.0,4.0,87,0.00,,CLR,0.00,VWS V14.01,2013-07-19 09:38:00,
2013-07-19 05:43:00,82.2,77.9,29.98,SW,228,0.0,4.0,87,0.00,,CLR,0.00,VWS V14.01,2013-07-19 09:43:00,
2013-07-19 05:48:00,82.1,77.8,29.98,WSW,240,2.0,5.0,87,0.00,,CLR,0.00,VWS V14.01,2013-07-19 09:48:00,
2013-07-19 05:53:00,82.2,77.9,29.98,WSW,244,3.0,5.0,87,0.00,,CLR,0.00,VWS V14.01,2013-07-19 09:53:00,
2013-07-19 05:58:00,82.1,77.8,29.98,SW,219,3.0,6.0,87,0.00,,CLR,0.00,VWS V14.01,2013-07-19 09:58:00,
2013-07-19 06:03:00,82.0,77.8,29.98,SW,221,2.0,6.0,87,0.00,,CLR,0.00,VWS V14.01,2013-07-19 10:03:00,
2013-07-19 06:08:00,82.0,77.8,29.98,SW,236,6.0,6.0,87,0.00,,CLR,0.00,VWS V14.01,2013-07-19 10:08:00,
2013-07-19 06:13:00,82.0,77.8,29.98,SW,219,4.0,5.0,87,0.00,,CLR,0.00,VWS V14.01,2013-07-19 10:13:00,
2013-07-19 06:18:00,81.9,78.0,29.98,WSW,239,2.0,6.0,88,0.00,,CLR,0.00,VWS V14.01,2013-07-19 10:18:00,
2013-07-19 06:23:00,81.9,78.0,29.98,SSW,210,1.0,4.0,88,0.00,,CLR,0.00,VWS V14.01,2013-07-19 10:23:00,
2013-07-19 06:28:00,82.0,78.1,29.98,SW,228,4.0,6.0,88,0.00,,CLR,0.00,VWS V14.01,2013-07-19 10:28:00,
2013-07-19 06:33:00,82.1,77.8,29.98,SW,231,2.0,4.0,87,0.00,,CLR,0.00,VWS V14.01,2013-07-19 10:33:00,
2013-07-19 06:38:00,82.1,77.8,29.98,SW,216,1.0,5.0,87,0.00,,CLR,0.00,VWS V14.01,2013-07-19 10:38:00,
2013-07-19 06:43:00,82.1,77.8,29.98,WSW,244,3.0,6.0,87,0.00,,CLR,0.00,VWS V14.01,2013-07-19 10:43:00,
2013-07-19 06:48:00,82.2,77.9,29.97,WSW,238,0.0,5.0,87,0.00,,CLR,0.00,VWS V14.01,2013-07-19 10:48:00,
2013-07-19 06:54:00,82.2,77.9,29.97,SW,224,5.0,5.0,87,0.00,,CLR,0.00,VWS V14.01,2013-07-19 10:54:00,
2013-07-19 06:59:00,82.3,78.1,29.97,SW,217,2.0,5.0,87,0.00,,CLR,0.00,VWS V14.01,2013-07-19 10:59:00,
2013-07-19 07:04:00,82.5,78.2,29.97,SSW,206,5.0,5.0,87,0.00,,CLR,0.00,VWS V14.01,2013-07-19 11:04:00,
2013-07-19 07:09:00,82.6,78.7,29.97,SW,223,2.0,5.0,88,0.00,,CLR,0.00,VWS V14.01,2013-07-19 11:09:00,
2013-07-19 07:14:00,82.6,78.3,29.97,SW,221,4.0,7.0,87,0.00,,CLR,0.00,VWS V14.01,2013-07-19 11:14:00,
2013-07-19 07:19:00,82.8,78.5,29.97,SSW,209,4.0,4.0,87,0.00,,CLR,0.00,VWS V14.01,2013-07-19 11:19:00,
2013-07-19 07:24:00,82.9,78.6,29.97,SSW,209,0.0,5.0,87,0.00,,CLR,0.00,VWS V14.01,2013-07-19 11:24:00,
2013-07-19 07:29:00,83.0,78.7,29.98,SW,225,5.0,7.0,87,0.00,,CLR,0.00,VWS V14.01,2013-07-19 11:29:00,
2013-07-19 07:34:00,83.0,78.7,29.98,SSW,211,7.0,7.0,87,0.00,,CLR,0.00,VWS V14.01,2013-07-19 11:34:00,
2013-07-19 07:39:00,83.1,78.8,29.97,SSW,212,3.0,5.0,87,0.00,,CLR,0.00,VWS V14.01,2013-07-19 11:39:00,
2013-07-19 07:44:00,83.2,78.6,29.97,SW,218,3.0,9.0,86,0.00,,CLR,0.00,VWS V14.01,2013-07-19 11:44:00,
2013-07-19 07:49:00,83.4,79.1,29.97,SW,219,4.0,4.0,87,0.00,,CLR,0.00,VWS V14.01,2013-07-19 11:49:00,
2013-07-19 07:54:00,83.6,79.3,29.97,SW,219,4.0,4.0,87,0.00,,CLR,0.00,VWS V14.01,2013-07-19 11:54:00,
2013-07-19 07:59:00,83.6,79.0,29.97,WSW,239,4.0,5.0,86,0.00,,CLR,0.00,VWS V14.01,2013-07-19 11:59:00,
2013-07-19 08:04:00,83.8,79.2,29.97,SW,233,2.0,7.0,86,0.00,,CLR,0.00,VWS V14.01,2013-07-19 12:04:00,
2013-07-19 08:09:00,83.9,79.3,29.97,SW,215,4.0,6.0,86,0.00,,CLR,0.00,VWS V14.01,2013-07-19 12:09:00,
2013-07-19 08:14:00,84.1,79.5,29.97,South,186,2.0,7.0,86,0.00,,CLR,0.00,VWS V14.01,2013-07-19 12:14:00,
2013-07-19 08:19:00,84.3,79.7,29.97,SW,227,4.0,6.0,86,0.00,,CLR,0.00,VWS V14.01,2013-07-19 12:19:00,
2013-07-19 08:24:00,84.5,79.8,29.97,SSW,197,3.0,4.0,86,0.00,,CLR,0.00,VWS V14.01,2013-07-19 12:24:00,
2013-07-19 08:29:00,84.7,80.1,29.97,SSW,204,2.0,6.0,86,0.00,,CLR,0.00,VWS V14.01,2013-07-19 12:29:00,
2013-07-19 08:34:00,84.7,80.1,29.98,SSW,198,5.0,7.0,86,0.00,,CLR,0.00,VWS V14.01,2013-07-19 12:34:00,
2013-07-19 08:39:00,84.7,79.7,29.98,SW,225,4.0,8.0,85,0.00,,CLR,0.00,VWS V14.01,2013-07-19 12:39:00,
2013-07-19 08:44:00,84.7,79.7,29.98,SW,219,4.0,7.0,85,0.00,,CLR,0.00,VWS V14.01,2013-07-19 12:44:00,
2013-07-19 08:49:00,84.8,80.2,29.98,SW,221,5.0,7.0,86,0.00,,CLR,0.00,VWS V14.01,2013-07-19 12:49:00,
2013-07-19 08:54:00,84.9,79.9,29.98,SW,222,4.0,9.0,85,0.00,,CLR,0.00,VWS V14.01,2013-07-19 12:54:00,
2013-07-19 08:59:00,84.9,79.9,29.98,SW,219,4.0,9.0,85,0.00,,CLR,0.00,VWS V14.01,2013-07-19 12:59:00,
2013-07-19 09:04:00,85.1,80.4,29.98,SW,224,3.0,6.0,86,0.00,,SKC,0.00,VWS V14.01,2013-07-19 13:04:00,
2013-07-19 09:09:00,85.4,80.4,29.97,WSW,244,7.0,9.0,85,0.00,,SKC,0.00,VWS V14.01,2013-07-19 13:09:00,
2013-07-19 09:14:00,85.5,80.1,29.97,SW,221,4.0,7.0,84,0.00,,SKC,0.00,VWS V14.01,2013-07-19 13:14:00,
2013-07-19 09:19:00,85.7,80.3,29.98,SW,231,5.0,7.0,84,0.00,,SKC,0.00,VWS V14.01,2013-07-19 13:19:00,
2013-07-19 09:24:00,85.8,80.4,29.98,SW,222,6.0,7.0,84,0.00,,SKC,0.00,VWS V14.01,2013-07-19 13:24:00,
2013-07-19 09:26:00,85.7,79.9,29.97,SW,226,2.0,11.0,83,0.00,,SKC,0.00,VWS V14.01,2013-07-19 13:26:00,
2013-07-19 09:31:00,86.0,81.0,29.98,SW,220,6.0,7.0,85,0.00,,SKC,0.00,VWS V14.01,2013-07-19 13:31:00,
2013-07-19 09:36:00,86.0,80.2,29.97,SSW,196,4.0,8.0,83,0.00,,SKC,0.00,VWS V14.01,2013-07-19 13:36:00,
2013-07-19 09:41:00,86.1,80.7,29.97,SSW,210,3.0,5.0,84,0.00,,SKC,0.00,VWS V14.01,2013-07-19 13:41:00,
2013-07-19 09:46:00,86.4,80.6,29.97,SW,220,4.0,8.0,83,0.00,,SKC,0.00,VWS V14.01,2013-07-19 13:46:00,
2013-07-19 09:51:00,86.6,81.2,29.97,SSW,194,2.0,5.0,84,0.00,,SKC,0.00,VWS V14.01,2013-07-19 13:51:00,
2013-07-19 09:56:00,86.8,81.4,29.97,SW,229,2.0,5.0,84,0.00,,SKC,0.00,VWS V14.01,2013-07-19 13:56:00,
2013-07-19 10:01:00,86.8,80.7,29.97,SSW,195,4.0,9.0,82,0.00,,SKC,0.00,VWS V14.01,2013-07-19 14:01:00,
2013-07-19 10:06:00,86.8,81.0,29.97,SW,224,7.0,9.0,83,0.00,,SKC,0.00,VWS V14.01,2013-07-19 14:06:00,
2013-07-19 10:11:00,86.9,81.5,29.97,SW,226,4.0,4.0,84,0.00,,SKC,0.00,VWS V14.01,2013-07-19 14:11:00,
2013-07-19 10:16:00,87.0,80.8,29.97,SSE,165,4.0,8.0,82,0.00,,SKC,0.00,VWS V14.01,2013-07-19 14:16:00,
2013-07-19 10:21:00,87.2,81.0,29.97,South,172,9.0,10.0,82,0.00,,SKC,0.00,VWS V14.01,2013-07-19 14:21:00,
2013-07-19 10:26:00,87.2,81.0,29.97,South,181,1.0,9.0,82,0.00,,SKC,0.00,VWS V14.01,2013-07-19 14:26:00,
2013-07-19 10:31:00,87.4,82.0,29.97,South,169,3.0,6.0,84,0.00,,SKC,0.00,VWS V14.01,2013-07-19 14:31:00,
2013-07-19 10:36:00,87.2,81.0,29.97,SSW,194,1.0,10.0,82,0.00,,SKC,0.00,VWS V14.01,2013-07-19 14:36:00,
2013-07-19 10:41:00,87.4,81.6,29.97,South,183,4.0,7.0,83,0.00,,SKC,0.00,VWS V14.01,2013-07-19 14:41:00,
2013-07-19 10:46:00,87.4,81.6,29.97,SSE,153,5.0,9.0,83,0.00,,SKC,0.00,VWS V14.01,2013-07-19 14:46:00,
2013-07-19 10:51:00,87.6,81.8,29.97,SSE,157,2.0,8.0,83,0.00,,SKC,0.00,VWS V14.01,2013-07-19 14:51:00,
2013-07-19 10:56:00,87.8,81.6,29.97,SW,219,6.0,7.0,82,0.00,,SKC,0.00,VWS V14.01,2013-07-19 14:56:00,
2013-07-19 11:01:00,87.7,81.5,29.97,South,169,6.0,13.0,82,0.00,,SKC,0.00,VWS V14.01,2013-07-19 15:01:00,
2013-07-19 11:06:00,87.6,81.4,29.97,SSE,167,5.0,11.0,82,0.00,,SKC,0.00,VWS V14.01,2013-07-19 15:06:00,
2013-07-19 11:11:00,87.7,81.2,29.97,SSE,158,6.0,9.0,81,0.00,,SKC,0.00,VWS V14.01,2013-07-19 15:11:00,
2013-07-19 11:16:00,87.8,81.6,29.97,South,188,3.0,9.0,82,0.00,,SKC,0.00,VWS V14.01,2013-07-19 15:16:00,
2013-07-19 11:21:00,88.3,82.5,29.97,South,173,6.0,6.0,83,0.00,,SKC,0.00,VWS V14.01,2013-07-19 15:21:00,
2013-07-19 11:26:00,88.4,81.8,29.96,SW,217,3.0,7.0,81,0.00,,SKC,0.00,VWS V14.01,2013-07-19 15:26:00,
2013-07-19 11:31:00,88.8,83.0,29.97,South,169,3.0,7.0,83,0.00,,SKC,0.00,VWS V14.01,2013-07-19 15:31:00,
2013-07-19 11:36:00,89.0,82.0,29.96,SSE,162,4.0,8.0,80,0.00,,SKC,0.00,VWS V14.01,2013-07-19 15:36:00,
2013-07-19 11:41:00,89.0,82.0,29.96,South,171,9.0,11.0,80,0.00,,SKC,0.00,VWS V14.01,2013-07-19 15:41:00,
2013-07-19 11:47:00,89.0,82.8,29.96,South,171,6.0,12.0,82,0.00,,SKC,0.00,VWS V14.01,2013-07-19 15:47:00,
2013-07-19 11:52:00,89.0,83.2,29.96,SSE,159,10.0,11.0,83,0.00,,SKC,0.00,VWS V14.01,2013-07-19 15:52:00,
2013-07-19 11:57:00,88.7,82.9,29.96,SSE,157,7.0,12.0,83,0.00,,SKC,0.00,VWS V14.01,2013-07-19 15:57:00,
2013-07-19 12:02:00,88.5,82.7,29.96,SSE,154,5.0,13.0,83,0.00,,SKC,0.00,VWS V14.01,2013-07-19 16:02:00,
2013-07-19 12:07:00,88.8,82.6,29.95,SSE,162,6.0,12.0,82,0.00,,SKC,0.00,VWS V14.01,2013-07-19 16:07:00,
2013-07-19 12:12:00,89.1,82.9,29.95,South,181,9.0,12.0,82,0.00,,SKC,0.00,VWS V14.01,2013-07-19 16:12:00,
2013-07-19 12:17:00,89.2,83.0,29.95,South,175,5.0,11.0,82,0.00,,SKC,0.00,VWS V14.01,2013-07-19 16:17:00,
2013-07-19 12:22:00,89.1,82.1,29.95,SSE,167,7.0,11.0,80,0.00,,SKC,0.00,VWS V14.01,2013-07-19 16:22:00,
2013-07-19 12:27:00,89.3,82.3,29.95,SSE,166,6.0,11.0,80,0.00,,SKC,0.00,VWS V14.01,2013-07-19 16:27:00,
2013-07-19 12:32:00,89.3,81.9,29.95,SSE,155,7.0,10.0,79,0.00,,SKC,0.00,VWS V14.01,2013-07-19 16:32:00,
2013-07-19 12:37:00,89.5,82.5,29.95,SSE,166,4.0,11.0,80,0.00,,SKC,0.00,VWS V14.01,2013-07-19 16:37:00,
2013-07-19 12:42:00,89.7,82.3,29.95,South,170,5.0,10.0,79,0.00,,CLR,0.00,VWS V14.01,2013-07-19 16:42:00,
2013-07-19 12:47:00,89.8,82.4,29.95,SSE,162,5.0,11.0,79,0.00,,CLR,0.00,VWS V14.01,2013-07-19 16:47:00,
2013-07-19 12:52:00,89.9,83.3,29.94,SSE,168,8.0,11.0,81,0.00,,CLR,0.00,VWS V14.01,2013-07-19 16:52:00,
2013-07-19 12:57:00,89.7,82.7,29.94,SSE,153,13.0,14.0,80,0.00,,CLR,0.00,VWS V14.01,2013-07-19 16:57:00,
2013-07-19 13:02:00,89.6,82.6,29.94,South,169,9.0,12.0,80,0.00,,CLR,0.00,VWS V14.01,2013-07-19 17:02:00,
2013-07-19 13:07:00,89.6,81.8,29.94,South,181,9.0,12.0,78,0.00,,CLR,0.00,VWS V14.01,2013-07-19 17:07:00,
2013-07-19 13:12:00,89.7,81.5,29.94,SSW,209,5.0,15.0,77,0.00,,CLR,0.00,VWS V14.01,2013-07-19 17:12:00,
2013-07-19 13:17:00,89.8,82.0,29.94,SSE,167,12.0,13.0,78,0.00,,CLR,0.00,VWS V14.01,2013-07-19 17:17:00,
2013-07-19 13:22:00,89.9,82.9,29.93,SSE,152,7.0,15.0,80,0.00,,CLR,0.00,VWS V14.01,2013-07-19 17:22:00,
2013-07-19 13:27:00,89.9,82.5,29.93,South,171,8.0,11.0,79,0.00,,CLR,0.00,VWS V14.01,2013-07-19 17:27:00,
2013-07-19 13:32:00,90.0,82.6,29.93,South,175,6.0,13.0,79,0.00,,SKC,0.00,VWS V14.01,2013-07-19 17:32:00,
2013-07-19 13:37:00,90.1,82.7,29.93,SSE,163,9.0,15.0,79,0.00,,SKC,0.00,VWS V14.01,2013-07-19 17:37:00,
2013-07-19 13:42:00,90.0,83.4,29.93,SSE,155,9.0,9.0,81,0.00,,SKC,0.00,VWS V14.01,2013-07-19 17:42:00,
2013-07-19 13:47:00,90.0,83.0,29.93,South,184,5.0,12.0,80,0.00,,SKC,0.00,VWS V14.01,2013-07-19 17:47:00,
2013-07-19 13:52:00,90.1,82.7,29.93,SSE,162,6.0,11.0,79,0.00,,SKC,0.00,VWS V14.01,2013-07-19 17:52:00,
2013-07-19 13:57:00,90.3,82.9,29.92,South,171,13.0,13.0,79,0.00,,SKC,0.00,VWS V14.01,2013-07-19 17:57:00,
2013-07-19 14:02:00,90.2,83.2,29.92,SSE,162,10.0,12.0,80,0.00,,SKC,0.00,VWS V14.01,2013-07-19 18:02:00,
2013-07-19 14:07:00,90.2,82.8,29.92,South,188,9.0,15.0,79,0.00,,SKC,0.00,VWS V14.01,2013-07-19 18:07:00,
2013-07-19 14:12:00,90.1,82.7,29.92,South,175,6.0,12.0,79,0.00,,SKC,0.00,VWS V14.01,2013-07-19 18:12:00,
2013-07-19 14:17:00,89.9,83.3,29.92,SSE,165,11.0,14.0,81,0.00,,SKC,0.00,VWS V14.01,2013-07-19 18:17:00,
2013-07-19 14:22:00,89.8,82.4,29.92,SSE,161,6.0,15.0,79,0.00,,SKC,0.00,VWS V14.01,2013-07-19 18:22:00,
2013-07-19 14:27:00,89.6,82.6,29.92,South,180,12.0,13.0,80,0.00,,SKC,0.00,VWS V14.01,2013-07-19 18:27:00,
2013-07-19 14:32:00,89.8,83.2,29.91,South,171,12.0,13.0,81,0.00,,SCT040,0.00,VWS V14.01,2013-07-19 18:32:00,
2013-07-19 14:37:00,90.0,83.0,29.91,SSE,165,6.0,13.0,80,0.00,,SCT040,0.00,VWS V14.01,2013-07-19 18:37:00,
2013-07-19 14:42:00,89.9,82.5,29.91,SSE,159,14.0,15.0,79,0.00,,SCT040,0.00,VWS V14.01,2013-07-19 18:42:00,
2013-07-19 14:47:00,89.9,82.9,29.90,SSE,163,7.0,11.0,80,0.00,,SCT040,0.00,VWS V14.01,2013-07-19 18:47:00,
2013-07-19 14:52:00,89.8,82.4,29.90,South,173,12.0,14.0,79,0.00,,SCT040,0.00,VWS V14.01,2013-07-19 18:52:00,
2013-07-19 14:58:00,89.8,82.4,29.90,South,170,9.0,13.0,79,0.00,,SCT040,0.00,VWS V14.01,2013-07-19 18:58:00,
2013-07-19 15:03:00,90.0,82.6,29.90,SSE,168,6.0,11.0,79,0.00,,SCT040,0.00,VWS V14.01,2013-07-19 19:03:00,
2013-07-19 15:08:00,90.1,82.7,29.90,SSE,162,9.0,15.0,79,0.00,,SCT040,0.00,VWS V14.01,2013-07-19 19:08:00,
2013-07-19 15:13:00,90.0,82.2,29.89,South,191,9.0,14.0,78,0.00,,SCT040,0.00,VWS V14.01,2013-07-19 19:13:00,
2013-07-19 15:18:00,90.0,82.6,29.89,SSE,165,14.0,14.0,79,0.00,,SCT040,0.00,VWS V14.01,2013-07-19 19:18:00,
2013-07-19 15:23:00,90.1,82.7,29.89,SSE,148,11.0,13.0,79,0.00,,SCT040,0.00,VWS V14.01,2013-07-19 19:23:00,
2013-07-19 15:28:00,90.1,82.7,29.89,South,171,9.0,13.0,79,0.00,,SCT040,0.00,VWS V14.01,2013-07-19 19:28:00,
2013-07-19 15:33:00,90.1,82.3,29.89,South,170,6.0,13.0,78,0.00,,FEW040,0.00,VWS V14.01,2013-07-19 19:33:00,
2013-07-19 15:38:00,90.0,82.6,29.88,South,187,11.0,15.0,79,0.00,,FEW040,0.00,VWS V14.01,2013-07-19 19:38:00,
2013-07-19 15:43:00,90.0,82.6,29.88,SSE,158,11.0,12.0,79,0.00,,FEW040,0.00,VWS V14.01,2013-07-19 19:43:00,
2013-07-19 15:48:00,90.1,82.7,29.88,SSE,167,9.0,13.0,79,0.00,,FEW040,0.00,VWS V14.01,2013-07-19 19:48:00,
2013-07-19 15:53:00,90.1,82.7,29.88,South,173,12.0,13.0,79,0.00,,FEW040,0.00,VWS V14.01,2013-07-19 19:53:00,
2013-07-19 15:58:00,90.2,82.8,29.88,South,171,7.0,7.0,79,0.00,,FEW040,0.00,VWS V14.01,2013-07-19 19:58:00,
2013-07-19 16:03:00,90.6,82.0,29.87,South,181,8.0,11.0,76,0.00,,FEW040,0.00,VWS V14.01,2013-07-19 20:03:00,
2013-07-19 16:08:00,90.7,82.1,29.87,SSE,167,10.0,11.0,76,0.00,,FEW040,0.00,VWS V14.01,2013-07-19 20:08:00,
2013-07-19 16:13:00,90.8,82.6,29.87,South,175,4.0,10.0,77,0.00,,FEW040,0.00,VWS V14.01,2013-07-19 20:13:00,
2013-07-19 16:18:00,90.9,82.3,29.87,South,188,13.0,13.0,76,0.00,,FEW040,0.00,VWS V14.01,2013-07-19 20:18:00,
2013-07-19 16:23:00,90.9,83.1,29.86,SSE,154,7.0,11.0,78,0.00,,FEW040,0.00,VWS V14.01,2013-07-19 20:23:00,
2013-07-19 16:28:00,90.8,82.2,29.86,South,182,6.0,12.0,76,0.00,,FEW040,0.00,VWS V14.01,2013-07-19 20:28:00,
2013-07-19 16:33:00,90.7,81.7,29.86,SSE,159,6.0,12.0,75,0.00,,SCT040,0.00,VWS V14.01,2013-07-19 20:33:00,
2013-07-19 16:38:00,90.9,82.3,29.86,SSE,168,5.0,10.0,76,0.00,,SCT040,0.00,VWS V14.01,2013-07-19 20:38:00,
2013-07-19 16:43:00,91.1,82.1,29.86,South,169,1.0,10.0,75,0.00,,SCT040,0.00,VWS V14.01,2013-07-19 20:43:00,
2013-07-19 16:48:00,91.4,82.8,29.86,SSE,166,2.0,10.0,76,0.00,,SCT040,0.00,VWS V14.01,2013-07-19 20:48:00,
2013-07-19 16:53:00,91.5,82.9,29.86,SSE,155,3.0,7.0,76,0.00,,SCT040,0.00,VWS V14.01,2013-07-19 20:53:00,
2013-07-19 16:58:00,91.6,83.0,29.86,SSW,204,6.0,10.0,76,0.00,,SCT040,0.00,VWS V14.01,2013-07-19 20:58:00,
2013-07-19 17:03:00,91.5,82.5,29.86,SSE,158,7.0,10.0,75,0.00,,SCT040,0.00,VWS V14.01,2013-07-19 21:03:00,
2013-07-19 17:08:00,91.5,83.3,29.86,SE,146,3.0,6.0,77,0.00,,SCT040,0.00,VWS V14.01,2013-07-19 21:08:00,
2013-07-19 17:13:00,91.5,82.5,29.86,SSE,168,6.0,8.0,75,0.00,,SCT040,0.00,VWS V14.01,2013-07-19 21:13:00,
2013-07-19 17:18:00,91.4,82.4,29.86,SSE,162,3.0,8.0,75,0.00,,SCT040,0.00,VWS V14.01,2013-07-19 21:18:00,
2013-07-19 17:23:00,91.4,82.8,29.86,South,171,8.0,9.0,76,0.00,,SCT040,0.00,VWS V14.01,2013-07-19 21:23:00,
2013-07-19 17:28:00,91.2,82.2,29.86,South,179,11.0,13.0,75,0.00,,SCT040,0.00,VWS V14.01,2013-07-19 21:28:00,
2013-07-19 17:33:00,91.0,82.0,29.86,SE,146,6.0,9.0,75,0.00,,SCT040,0.00,VWS V14.01,2013-07-19 21:33:00,
2013-07-19 17:38:00,90.9,82.3,29.86,SSW,207,5.0,7.0,76,0.00,,SCT040,0.00,VWS V14.01,2013-07-19 21:38:00,
2013-07-19 17:43:00,90.9,82.7,29.86,SSE,163,2.0,7.0,77,0.00,,SCT040,0.00,VWS V14.01,2013-07-19 21:43:00,
2013-07-19 17:48:00,91.0,82.4,29.86,SSW,202,0.0,7.0,76,0.00,,SCT040,0.00,VWS V14.01,2013-07-19 21:48:00,
2013-07-19 17:53:00,91.0,82.8,29.86,SSW,213,2.0,6.0,77,0.00,,SCT040,0.00,VWS V14.01,2013-07-19 21:53:00,
2013-07-19 17:58:00,91.0,82.8,29.86,SW,221,4.0,10.0,77,0.00,,SCT040,0.00,VWS V14.01,2013-07-19 21:58:00,
2013-07-19 18:03:00,90.9,82.7,29.86,SW,215,5.0,7.0,77,0.00,,SCT040,0.00,VWS V14.01,2013-07-19 22:03:00,
2013-07-19 18:08:00,90.8,82.2,29.86,South,187,5.0,11.0,76,0.00,,SCT040,0.00,VWS V14.01,2013-07-19 22:08:00,
2013-07-19 18:13:00,90.8,82.6,29.86,SSW,210,4.0,5.0,77,0.00,,SCT040,0.00,VWS V14.01,2013-07-19 22:13:00,
2013-07-19 18:14:00,90.8,82.6,29.86,SW,214,5.0,5.0,77,0.00,,SCT040,0.00,VWS V14.01,2013-07-19 22:14:00,
2013-07-19 18:19:00,90.8,82.6,29.86,South,171,4.0,4.0,77,0.00,,SCT040,0.00,VWS V14.01,2013-07-19 22:19:00,
2013-07-19 18:24:00,90.6,82.0,29.86,South,170,4.0,6.0,76,0.00,,SCT040,0.00,VWS V14.01,2013-07-19 22:24:00,
2013-07-19 18:29:00,90.6,82.4,29.86,SSW,206,2.0,5.0,77,0.00,,SCT040,0.00,VWS V14.01,2013-07-19 22:29:00,
2013-07-19 18:34:00,90.4,81.8,29.86,South,190,4.0,11.0,76,0.00,,SCT040,0.00,VWS V14.01,2013-07-19 22:34:00,
2013-07-19 18:39:00,90.4,81.4,29.86,SSW,196,6.0,7.0,75,0.00,,SCT040,0.00,VWS V14.01,2013-07-19 22:39:00,
2013-07-19 18:44:00,90.3,81.3,29.85,South,190,3.0,9.0,75,0.00,,,0.00,VWS V14.01,2013-07-19 22:44:00,
2013-07-19 18:49:00,90.3,81.7,29.85,SSE,154,0.0,5.0,76,0.00,,,0.00,VWS V14.01,2013-07-19 22:49:00,
2013-07-19 18:54:00,90.2,81.6,29.85,SW,225,0.0,6.0,76,0.00,,,0.00,VWS V14.01,2013-07-19 22:54:00,
2013-07-19 18:59:00,90.0,81.4,29.85,SSW,200,0.0,6.0,76,0.00,,,0.00,VWS V14.01,2013-07-19 22:59:00,
2013-07-19 19:04:00,89.9,81.7,29.85,SW,231,4.0,6.0,77,0.00,,,0.00,VWS V14.01,2013-07-19 23:04:00,
2013-07-19 19:09:00,89.8,81.6,29.84,SSW,203,0.0,5.0,77,0.00,,,0.00,VWS V14.01,2013-07-19 23:09:00,
2013-07-19 19:14:00,89.6,81.4,29.84,SSE,163,4.0,6.0,77,0.00,,,0.00,VWS V14.01,2013-07-19 23:14:00,
2013-07-19 19:19:00,89.4,81.6,29.84,SW,219,2.0,5.0,78,0.00,,,0.00,VWS V14.01,2013-07-19 23:19:00,
2013-07-19 19:24:00,89.2,81.1,29.84,SSW,196,2.0,5.0,77,0.00,,,0.00,VWS V14.01,2013-07-19 23:24:00,
2013-07-19 19:29:00,88.8,80.7,29.85,SSW,206,6.0,10.0,77,0.00,,,0.00,VWS V14.01,2013-07-19 23:29:00,
2013-07-19 19:34:00,88.5,80.8,29.86,SW,233,4.0,6.0,78,0.00,,,0.00,VWS V14.01,2013-07-19 23:34:00,
2013-07-19 19:39:00,88.3,80.6,29.86,SW,230,5.0,6.0,78,0.00,,,0.00,VWS V14.01,2013-07-19 23:39:00,
2013-07-19 19:44:00,88.1,80.8,29.86,SSW,208,2.0,5.0,79,0.00,,,0.00,VWS V14.01,2013-07-19 23:44:00,
2013-07-19 19:49:00,87.9,80.2,29.86,SW,216,4.0,7.0,78,0.00,,,0.00,VWS V14.01,2013-07-19 23:49:00,
2013-07-19 19:54:00,87.9,80.2,29.85,SW,218,5.0,9.0,78,0.00,,,0.00,VWS V14.01,2013-07-19 23:54:00,
2013-07-19 19:55:00,87.9,80.2,29.85,SSW,202,3.0,9.0,78,0.00,,,0.00,VWS V14.01,2013-07-19 23:55:00,
2013-07-19 20:00:00,87.9,80.2,29.86,SW,227,4.0,5.0,78,0.00,,,0.00,VWS V14.01,2013-07-20 00:00:00,
2013-07-19 20:05:00,87.8,80.1,29.86,SW,233,3.0,5.0,78,0.00,,,0.00,VWS V14.01,2013-07-20 00:05:00,
2013-07-19 20:10:00,87.8,80.1,29.87,SSW,204,5.0,5.0,78,0.00,,,0.00,VWS V14.01,2013-07-20 00:10:00,
2013-07-19 20:15:00,87.7,80.0,29.87,SW,225,5.0,7.0,78,0.00,,,0.00,VWS V14.01,2013-07-20 00:15:00,
2013-07-19 20:20:00,87.6,79.5,29.87,SW,220,3.0,5.0,77,0.00,,,0.00,VWS V14.01,2013-07-20 00:20:00,
2013-07-19 20:25:00,87.6,79.9,29.87,SW,215,3.0,8.0,78,0.00,,,0.00,VWS V14.01,2013-07-20 00:25:00,
2013-07-19 20:30:00,87.4,79.7,29.86,SW,221,5.0,5.0,78,0.00,,,0.00,VWS V14.01,2013-07-20 00:30:00,
2013-07-19 20:35:00,87.3,80.0,29.87,SSW,211,6.0,6.0,79,0.00,,,0.00,VWS V14.01,2013-07-20 00:35:00,
2013-07-19 20:40:00,87.2,79.5,29.87,SW,219,4.0,7.0,78,0.00,,,0.00,VWS V14.01,2013-07-20 00:40:00,
2013-07-19 20:45:00,87.2,79.1,29.87,SW,221,4.0,7.0,77,0.00,,,0.00,VWS V14.01,2013-07-20 00:45:00,
2013-07-19 20:50:00,87.3,79.2,29.87,SSW,213,5.0,5.0,77,0.00,,,0.00,VWS V14.01,2013-07-20 00:50:00,
2013-07-19 20:55:00,87.2,78.7,29.87,SW,227,3.0,12.0,76,0.00,,,0.00,VWS V14.01,2013-07-20 00:55:00,
2013-07-19 21:00:00,87.2,78.7,29.87,SSW,213,4.0,5.0,76,0.00,,,0.00,VWS V14.01,2013-07-20 01:00:00,
2013-07-19 21:05:00,87.2,79.1,29.87,SW,215,2.0,6.0,77,0.00,,,0.00,VWS V14.01,2013-07-20 01:05:00,
2013-07-19 21:10:00,87.1,79.4,29.87,SSW,207,0.0,5.0,78,0.00,,,0.00,VWS V14.01,2013-07-20 01:10:00,
2013-07-19 21:15:00,87.0,79.7,29.87,SW,217,1.0,5.0,79,0.00,,,0.00,VWS V14.01,2013-07-20 01:15:00,
2013-07-19 21:20:00,86.8,79.5,29.87,South,188,1.0,4.0,79,0.00,,,0.00,VWS V14.01,2013-07-20 01:20:00,
2013-07-19 21:25:00,86.7,79.8,29.87,SW,229,7.0,7.0,80,0.00,,,0.00,VWS V14.01,2013-07-20 01:25:00,
2013-07-19 21:30:00,86.6,79.7,29.87,SW,215,3.0,7.0,80,0.00,,,0.00,VWS V14.01,2013-07-20 01:30:00,
2013-07-19 21:35:00,86.6,80.1,29.87,SSW,198,3.0,6.0,81,0.00,,,0.00,VWS V14.01,2013-07-20 01:35:00,
2013-07-19 21:40:00,86.6,80.1,29.87,SSW,212,0.0,9.0,81,0.00,,SKC,0.00,VWS V14.01,2013-07-20 01:40:00,
2013-07-19 21:45:00,86.5,80.3,29.87,SSW,201,4.0,5.0,82,0.00,,SKC,0.00,VWS V14.01,2013-07-20 01:45:00,
2013-07-19 21:50:00,86.5,80.0,29.87,SW,221,3.0,7.0,81,0.00,,SKC,0.00,VWS V14.01,2013-07-20 01:50:00,
2013-07-19 21:55:00,86.5,80.0,29.87,SW,222,5.0,6.0,81,0.00,,SKC,0.00,VWS V14.01,2013-07-20 01:55:00,
2013-07-19 22:00:00,86.5,80.0,29.87,WSW,243,4.0,6.0,81,0.00,,SKC,0.00,VWS V14.01,2013-07-20 02:00:00,
2013-07-19 22:05:00,86.4,80.3,29.87,SW,225,6.0,10.0,82,0.00,,SKC,0.00,VWS V14.01,2013-07-20 02:05:00,
2013-07-19 22:10:00,86.4,80.3,29.87,SSW,194,1.0,8.0,82,0.00,,SKC,0.00,VWS V14.01,2013-07-20 02:10:00,
2013-07-19 22:15:00,86.3,80.2,29.87,SSW,208,6.0,10.0,82,0.00,,SKC,0.00,VWS V14.01,2013-07-20 02:15:00,
2013-07-19 22:20:00,86.3,80.5,29.86,SSW,202,3.0,11.0,83,0.00,,SKC,0.00,VWS V14.01,2013-07-20 02:20:00,
2013-07-19 22:25:00,86.2,80.1,29.86,SW,229,5.0,14.0,82,0.00,,SKC,0.00,VWS V14.01,2013-07-20 02:25:00,
2013-07-19 22:30:00,86.2,80.4,29.86,SW,227,5.0,11.0,83,0.00,,SKC,0.00,VWS V14.01,2013-07-20 02:30:00,
2013-07-19 22:36:00,86.1,80.3,29.86,SW,226,6.0,10.0,83,0.00,,SKC,0.00,VWS V14.01,2013-07-20 02:36:00,
2013-07-19 22:41:00,86.0,80.2,29.86,SSW,213,9.0,12.0,83,0.00,,SKC,0.00,VWS V14.01,2013-07-20 02:41:00,
2013-07-19 22:46:00,85.9,80.5,29.86,SW,221,10.0,12.0,84,0.00,,SKC,0.00,VWS V14.01,2013-07-20 02:46:00,
2013-07-19 22:51:00,85.9,80.5,29.86,WSW,240,10.0,10.0,84,0.00,,SKC,0.00,VWS V14.01,2013-07-20 02:51:00,
2013-07-19 22:56:00,85.9,80.1,29.86,SW,228,11.0,18.0,83,0.00,,SKC,0.00,VWS V14.01,2013-07-20 02:56:00,
2013-07-19 23:01:00,85.8,80.0,29.86,SW,221,7.0,12.0,83,0.00,,SKC,0.00,VWS V14.01,2013-07-20 03:01:00,
2013-07-19 23:06:00,85.7,79.9,29.86,SSW,207,4.0,12.0,83,0.00,,SKC,0.00,VWS V14.01,2013-07-20 03:06:00,
2013-07-19 23:11:00,85.7,79.9,29.86,SSW,199,5.0,9.0,83,0.00,,SKC,0.00,VWS V14.01,2013-07-20 03:11:00,
2013-07-19 23:16:00,85.6,79.8,29.86,South,191,5.0,12.0,83,0.00,,SKC,0.00,VWS V14.01,2013-07-20 03:16:00,
2013-07-19 23:21:00,85.6,79.8,29.86,South,191,4.0,13.0,83,0.00,,SKC,0.00,VWS V14.01,2013-07-20 03:21:00,
2013-07-19 23:26:00,85.6,79.8,29.86,WSW,238,8.0,12.0,83,0.00,,SKC,0.00,VWS V14.01,2013-07-20 03:26:00,
2013-07-19 23:31:00,85.5,79.8,29.86,SSW,205,11.0,12.0,83,0.00,,SKC,0.00,VWS V14.01,2013-07-20 03:31:00,
2013-07-19 23:36:00,85.5,79.8,29.86,SW,216,4.0,11.0,83,0.00,,SKC,0.00,VWS V14.01,2013-07-20 03:36:00,
2013-07-19 23:41:00,85.5,79.8,29.85,SSW,204,8.0,12.0,83,0.00,,SCT043,0.00,VWS V14.01,2013-07-20 03:41:00,
2013-07-19 23:46:00,85.5,79.4,29.86,WSW,243,7.0,15.0,82,0.00,,SCT043,0.00,VWS V14.01,2013-07-20 03:46:00,
2013-07-19 23:51:00,85.5,79.8,29.85,WSW,239,9.0,12.0,83,0.00,,SCT045,0.00,VWS V14.01,2013-07-20 03:51:00,
2013-07-19 23:56:00,85.5,79.4,29.85,SW,225,5.0,14.0,82,0.00,,SCT045,0.00,VWS V14.01,2013-07-20 03:56:00,